sensor_id;sensor_type;location;lat;lon;timestamp;P1;durP1;ratioP1;P2;durP2;ratioP2
54125;SDS011;40360;52.992;6.796;2022-12-13T00:01:27;52.25;;;28.35;;
54125;SDS011;40360;52.992;6.796;2022-12-13T00:03:57;62.67;;;29.00;;
54125;SDS011;40360;52.992;6.796;2022-12-13T00:06:24;59.08;;;29.23;;
54125;SDS011;40360;52.992;6.796;2022-12-13T00:08:51;56.72;;;26.55;;
54125;SDS011;40360;52.992;6.796;2022-12-13T00:11:20;50.97;;;26.08;;
54125;SDS011;40360;52.992;6.796;2022-12-13T00:13:46;48.17;;;26.10;;
54125;SDS011;40360;52.992;6.796;2022-12-13T00:16:16;60.70;;;29.52;;
54125;SDS011;40360;52.992;6.796;2022-12-13T00:18:47;44.38;;;25.45;;
54125;SDS011;40360;52.992;6.796;2022-12-13T00:21:16;49.60;;;25.85;;
54125;SDS011;40360;52.992;6.796;2022-12-13T00:23:43;52.30;;;25.35;;
54125;SDS011;40360;52.992;6.796;2022-12-13T00:26:11;53.05;;;24.60;;
54125;SDS011;40360;52.992;6.796;2022-12-13T00:28:38;45.45;;;24.42;;
54125;SDS011;40360;52.992;6.796;2022-12-13T00:31:05;44.30;;;25.20;;
54125;SDS011;40360;52.992;6.796;2022-12-13T00:33:31;53.70;;;25.70;;
54125;SDS011;40360;52.992;6.796;2022-12-13T00:35:57;44.75;;;23.60;;
54125;SDS011;40360;52.992;6.796;2022-12-13T00:38:22;52.08;;;26.55;;
54125;SDS011;40360;52.992;6.796;2022-12-13T00:40:49;49.42;;;24.98;;
54125;SDS011;40360;52.992;6.796;2022-12-13T00:43:16;54.85;;;27.30;;
54125;SDS011;40360;52.992;6.796;2022-12-13T00:45:42;56.55;;;26.67;;
54125;SDS011;40360;52.992;6.796;2022-12-13T00:48:08;49.33;;;25.30;;
54125;SDS011;40360;52.992;6.796;2022-12-13T00:50:34;49.90;;;25.70;;
54125;SDS011;40360;52.992;6.796;2022-12-13T00:53:01;48.58;;;25.83;;
54125;SDS011;40360;52.992;6.796;2022-12-13T00:55:27;50.83;;;25.83;;
54125;SDS011;40360;52.992;6.796;2022-12-13T00:57:53;45.40;;;25.98;;
54125;SDS011;40360;52.992;6.796;2022-12-13T01:00:18;49.08;;;25.35;;
54125;SDS011;40360;52.992;6.796;2022-12-13T01:02:44;47.88;;;25.55;;
54125;SDS011;40360;52.992;6.796;2022-12-13T01:05:10;46.58;;;24.88;;
54125;SDS011;40360;52.992;6.796;2022-12-13T01:07:37;41.38;;;22.60;;
54125;SDS011;40360;52.992;6.796;2022-12-13T01:10:04;44.35;;;23.60;;
54125;SDS011;40360;52.992;6.796;2022-12-13T01:12:31;41.40;;;22.88;;
54125;SDS011;40360;52.992;6.796;2022-12-13T01:14:58;46.08;;;23.63;;
54125;SDS011;40360;52.992;6.796;2022-12-13T01:17:23;41.50;;;22.73;;
54125;SDS011;40360;52.992;6.796;2022-12-13T01:19:49;43.65;;;22.55;;
54125;SDS011;40360;52.992;6.796;2022-12-13T01:22:15;39.53;;;21.30;;
54125;SDS011;40360;52.992;6.796;2022-12-13T01:24:40;40.17;;;20.27;;
54125;SDS011;40360;52.992;6.796;2022-12-13T01:27:06;42.70;;;22.55;;
54125;SDS011;40360;52.992;6.796;2022-12-13T01:29:32;41.17;;;21.35;;
54125;SDS011;40360;52.992;6.796;2022-12-13T01:31:57;41.45;;;21.38;;
54125;SDS011;40360;52.992;6.796;2022-12-13T01:34:23;36.90;;;20.40;;
54125;SDS011;40360;52.992;6.796;2022-12-13T01:36:48;39.28;;;20.92;;
54125;SDS011;40360;52.992;6.796;2022-12-13T01:39:16;41.33;;;20.95;;
54125;SDS011;40360;52.992;6.796;2022-12-13T01:41:47;33.90;;;19.40;;
54125;SDS011;40360;52.992;6.796;2022-12-13T01:47:22;36.70;;;20.75;;
54125;SDS011;40360;52.992;6.796;2022-12-13T01:50:14;36.13;;;19.85;;
54125;SDS011;40360;52.992;6.796;2022-12-13T01:52:43;35.58;;;19.05;;
54125;SDS011;40360;52.992;6.796;2022-12-13T01:55:10;36.80;;;19.40;;
54125;SDS011;40360;52.992;6.796;2022-12-13T01:57:36;37.40;;;19.77;;
54125;SDS011;40360;52.992;6.796;2022-12-13T02:00:05;33.05;;;19.02;;
54125;SDS011;40360;52.992;6.796;2022-12-13T02:02:32;36.33;;;19.40;;
54125;SDS011;40360;52.992;6.796;2022-12-13T02:07:40;36.58;;;20.98;;
54125;SDS011;40360;52.992;6.796;2022-12-13T02:10:07;34.55;;;20.08;;
54125;SDS011;40360;52.992;6.796;2022-12-13T02:12:34;34.85;;;19.25;;
54125;SDS011;40360;52.992;6.796;2022-12-13T02:15:07;34.40;;;19.45;;
54125;SDS011;40360;52.992;6.796;2022-12-13T02:31:50;35.13;;;18.60;;
54125;SDS011;40360;52.992;6.796;2022-12-13T02:34:35;34.90;;;19.65;;
54125;SDS011;40360;52.992;6.796;2022-12-13T02:37:15;36.95;;;20.65;;
54125;SDS011;40360;52.992;6.796;2022-12-13T02:39:55;41.90;;;20.13;;
54125;SDS011;40360;52.992;6.796;2022-12-13T02:42:36;38.20;;;19.95;;
54125;SDS011;40360;52.992;6.796;2022-12-13T02:45:16;34.67;;;18.83;;
54125;SDS011;40360;52.992;6.796;2022-12-13T02:47:46;37.53;;;18.73;;
54125;SDS011;40360;52.992;6.796;2022-12-13T02:50:13;35.90;;;19.45;;
54125;SDS011;40360;52.992;6.796;2022-12-13T02:52:39;37.08;;;21.10;;
54125;SDS011;40360;52.992;6.796;2022-12-13T02:55:10;41.50;;;19.50;;
54125;SDS011;40360;52.992;6.796;2022-12-13T02:57:39;40.25;;;22.42;;
54125;SDS011;40360;52.992;6.796;2022-12-13T03:00:13;43.38;;;23.52;;
54125;SDS011;40360;52.992;6.796;2022-12-13T03:02:44;36.90;;;20.80;;
54125;SDS011;40360;52.992;6.796;2022-12-13T03:11:14;43.00;;;24.33;;
54125;SDS011;40360;52.992;6.796;2022-12-13T03:13:52;45.83;;;23.73;;
54125;SDS011;40360;52.992;6.796;2022-12-13T03:16:30;43.95;;;24.05;;
54125;SDS011;40360;52.992;6.796;2022-12-13T03:19:02;42.75;;;24.23;;
54125;SDS011;40360;52.992;6.796;2022-12-13T03:21:36;44.35;;;22.92;;
54125;SDS011;40360;52.992;6.796;2022-12-13T03:24:07;47.17;;;24.50;;
54125;SDS011;40360;52.992;6.796;2022-12-13T03:26:32;48.05;;;23.70;;
54125;SDS011;40360;52.992;6.796;2022-12-13T03:28:59;46.47;;;23.15;;
54125;SDS011;40360;52.992;6.796;2022-12-13T03:31:24;45.83;;;24.92;;
54125;SDS011;40360;52.992;6.796;2022-12-13T03:33:50;46.22;;;23.70;;
54125;SDS011;40360;52.992;6.796;2022-12-13T03:36:16;44.70;;;23.63;;
54125;SDS011;40360;52.992;6.796;2022-12-13T03:38:43;44.78;;;23.92;;
54125;SDS011;40360;52.992;6.796;2022-12-13T03:41:14;49.65;;;25.27;;
54125;SDS011;40360;52.992;6.796;2022-12-13T03:43:43;39.50;;;20.85;;
54125;SDS011;40360;52.992;6.796;2022-12-13T03:46:10;43.85;;;21.98;;
54125;SDS011;40360;52.992;6.796;2022-12-13T03:48:36;41.90;;;22.90;;
54125;SDS011;40360;52.992;6.796;2022-12-13T03:51:02;43.25;;;22.42;;
54125;SDS011;40360;52.992;6.796;2022-12-13T03:53:28;47.67;;;23.95;;
54125;SDS011;40360;52.992;6.796;2022-12-13T03:55:54;45.28;;;21.98;;
54125;SDS011;40360;52.992;6.796;2022-12-13T03:58:22;39.50;;;20.67;;
54125;SDS011;40360;52.992;6.796;2022-12-13T04:00:49;44.80;;;21.40;;
54125;SDS011;40360;52.992;6.796;2022-12-13T04:03:15;35.25;;;19.35;;
54125;SDS011;40360;52.992;6.796;2022-12-13T04:05:40;41.25;;;20.42;;
54125;SDS011;40360;52.992;6.796;2022-12-13T04:08:06;37.25;;;20.63;;
54125;SDS011;40360;52.992;6.796;2022-12-13T04:10:32;36.83;;;20.58;;
54125;SDS011;40360;52.992;6.796;2022-12-13T04:12:59;38.30;;;20.42;;
54125;SDS011;40360;52.992;6.796;2022-12-13T04:15:43;42.45;;;23.67;;
54125;SDS011;40360;52.992;6.796;2022-12-13T04:18:13;44.85;;;22.75;;
54125;SDS011;40360;52.992;6.796;2022-12-13T04:20:43;43.08;;;23.05;;
54125;SDS011;40360;52.992;6.796;2022-12-13T04:23:09;51.35;;;25.40;;
54125;SDS011;40360;52.992;6.796;2022-12-13T04:25:36;49.33;;;25.05;;
54125;SDS011;40360;52.992;6.796;2022-12-13T04:28:02;44.50;;;23.20;;
54125;SDS011;40360;52.992;6.796;2022-12-13T04:30:28;49.47;;;26.05;;
54125;SDS011;40360;52.992;6.796;2022-12-13T04:32:54;42.92;;;23.88;;
54125;SDS011;40360;52.992;6.796;2022-12-13T04:35:20;44.45;;;24.15;;
54125;SDS011;40360;52.992;6.796;2022-12-13T04:37:46;40.72;;;21.25;;
54125;SDS011;40360;52.992;6.796;2022-12-13T04:40:12;46.83;;;21.95;;
54125;SDS011;40360;52.992;6.796;2022-12-13T04:42:39;48.30;;;21.42;;
54125;SDS011;40360;52.992;6.796;2022-12-13T04:45:05;39.55;;;21.80;;
54125;SDS011;40360;52.992;6.796;2022-12-13T04:47:31;42.65;;;22.90;;
54125;SDS011;40360;52.992;6.796;2022-12-13T04:49:56;39.08;;;21.33;;
54125;SDS011;40360;52.992;6.796;2022-12-13T04:52:22;47.28;;;23.70;;
54125;SDS011;40360;52.992;6.796;2022-12-13T04:54:48;37.60;;;21.90;;
54125;SDS011;40360;52.992;6.796;2022-12-13T04:57:14;36.47;;;19.40;;
54125;SDS011;40360;52.992;6.796;2022-12-13T04:59:40;36.30;;;19.45;;
54125;SDS011;40360;52.992;6.796;2022-12-13T05:02:06;35.13;;;18.10;;
54125;SDS011;40360;52.992;6.796;2022-12-13T05:20:55;38.72;;;20.75;;
54125;SDS011;40360;52.992;6.796;2022-12-13T05:23:25;40.63;;;20.70;;
54125;SDS011;40360;52.992;6.796;2022-12-13T05:25:51;39.90;;;21.52;;
54125;SDS011;40360;52.992;6.796;2022-12-13T05:28:16;35.22;;;19.77;;
54125;SDS011;40360;52.992;6.796;2022-12-13T05:30:42;37.17;;;22.48;;
54125;SDS011;40360;52.992;6.796;2022-12-13T05:33:08;37.05;;;20.80;;
54125;SDS011;40360;52.992;6.796;2022-12-13T05:35:34;39.83;;;20.83;;
54125;SDS011;40360;52.992;6.796;2022-12-13T05:38:00;43.47;;;22.15;;
54125;SDS011;40360;52.992;6.796;2022-12-13T05:40:27;38.55;;;20.95;;
54125;SDS011;40360;52.992;6.796;2022-12-13T05:42:54;45.25;;;23.27;;
54125;SDS011;40360;52.992;6.796;2022-12-13T05:45:20;49.03;;;22.90;;
54125;SDS011;40360;52.992;6.796;2022-12-13T05:47:46;48.15;;;25.20;;
54125;SDS011;40360;52.992;6.796;2022-12-13T05:50:12;56.10;;;28.70;;
54125;SDS011;40360;52.992;6.796;2022-12-13T05:52:39;50.38;;;28.35;;
54125;SDS011;40360;52.992;6.796;2022-12-13T05:55:07;55.95;;;28.63;;
54125;SDS011;40360;52.992;6.796;2022-12-13T05:57:33;52.67;;;27.42;;
54125;SDS011;40360;52.992;6.796;2022-12-13T05:59:59;58.47;;;28.15;;
54125;SDS011;40360;52.992;6.796;2022-12-13T06:02:26;55.65;;;27.90;;
54125;SDS011;40360;52.992;6.796;2022-12-13T06:04:51;50.80;;;27.95;;
54125;SDS011;40360;52.992;6.796;2022-12-13T06:07:17;57.85;;;27.92;;
54125;SDS011;40360;52.992;6.796;2022-12-13T06:09:43;49.60;;;26.60;;
54125;SDS011;40360;52.992;6.796;2022-12-13T06:12:08;49.55;;;24.80;;
54125;SDS011;40360;52.992;6.796;2022-12-13T06:14:34;50.05;;;26.48;;
54125;SDS011;40360;52.992;6.796;2022-12-13T06:17:00;49.22;;;26.45;;
54125;SDS011;40360;52.992;6.796;2022-12-13T06:19:26;50.08;;;27.23;;
54125;SDS011;40360;52.992;6.796;2022-12-13T06:21:53;47.90;;;26.05;;
54125;SDS011;40360;52.992;6.796;2022-12-13T06:24:19;52.28;;;26.75;;
54125;SDS011;40360;52.992;6.796;2022-12-13T06:26:46;46.35;;;24.65;;
54125;SDS011;40360;52.992;6.796;2022-12-13T06:29:16;55.55;;;27.50;;
54125;SDS011;40360;52.992;6.796;2022-12-13T06:31:43;49.90;;;27.02;;
54125;SDS011;40360;52.992;6.796;2022-12-13T06:34:09;46.63;;;25.17;;
54125;SDS011;40360;52.992;6.796;2022-12-13T06:36:34;56.72;;;28.00;;
54125;SDS011;40360;52.992;6.796;2022-12-13T06:39:04;55.65;;;27.90;;
54125;SDS011;40360;52.992;6.796;2022-12-13T06:41:30;49.58;;;26.00;;
54125;SDS011;40360;52.992;6.796;2022-12-13T06:43:56;46.10;;;24.38;;
54125;SDS011;40360;52.992;6.796;2022-12-13T06:46:22;54.30;;;28.70;;
54125;SDS011;40360;52.992;6.796;2022-12-13T06:48:48;46.40;;;24.98;;
54125;SDS011;40360;52.992;6.796;2022-12-13T06:51:14;44.25;;;25.63;;
54125;SDS011;40360;52.992;6.796;2022-12-13T06:53:40;48.90;;;25.90;;
54125;SDS011;40360;52.992;6.796;2022-12-13T06:56:07;48.75;;;25.70;;
54125;SDS011;40360;52.992;6.796;2022-12-13T06:58:34;48.20;;;25.25;;
54125;SDS011;40360;52.992;6.796;2022-12-13T07:01:01;44.92;;;24.48;;
54125;SDS011;40360;52.992;6.796;2022-12-13T07:03:31;46.50;;;23.55;;
54125;SDS011;40360;52.992;6.796;2022-12-13T07:05:58;48.00;;;26.15;;
54125;SDS011;40360;52.992;6.796;2022-12-13T07:08:24;49.45;;;27.08;;
54125;SDS011;40360;52.992;6.796;2022-12-13T07:10:51;45.17;;;23.95;;
54125;SDS011;40360;52.992;6.796;2022-12-13T07:13:20;43.88;;;23.55;;
54125;SDS011;40360;52.992;6.796;2022-12-13T07:15:46;47.95;;;26.48;;
54125;SDS011;40360;52.992;6.796;2022-12-13T07:18:12;48.33;;;27.75;;
54125;SDS011;40360;52.992;6.796;2022-12-13T07:20:38;51.72;;;26.00;;
54125;SDS011;40360;52.992;6.796;2022-12-13T07:23:04;46.25;;;25.38;;
54125;SDS011;40360;52.992;6.796;2022-12-13T07:25:30;48.58;;;26.00;;
54125;SDS011;40360;52.992;6.796;2022-12-13T07:28:00;51.08;;;27.55;;
54125;SDS011;40360;52.992;6.796;2022-12-13T07:30:28;53.58;;;28.95;;
54125;SDS011;40360;52.992;6.796;2022-12-13T07:32:59;54.28;;;26.52;;
54125;SDS011;40360;52.992;6.796;2022-12-13T07:35:25;53.33;;;27.50;;
54125;SDS011;40360;52.992;6.796;2022-12-13T07:37:51;49.67;;;26.50;;
54125;SDS011;40360;52.992;6.796;2022-12-13T07:40:17;53.55;;;27.70;;
54125;SDS011;40360;52.992;6.796;2022-12-13T07:42:48;53.95;;;27.73;;
54125;SDS011;40360;52.992;6.796;2022-12-13T07:45:14;56.30;;;28.52;;
54125;SDS011;40360;52.992;6.796;2022-12-13T07:47:40;60.72;;;29.13;;
54125;SDS011;40360;52.992;6.796;2022-12-13T07:50:05;59.88;;;29.17;;
54125;SDS011;40360;52.992;6.796;2022-12-13T07:52:31;60.65;;;28.15;;
54125;SDS011;40360;52.992;6.796;2022-12-13T07:54:57;63.40;;;31.17;;
54125;SDS011;40360;52.992;6.796;2022-12-13T07:57:23;63.58;;;28.00;;
54125;SDS011;40360;52.992;6.796;2022-12-13T07:59:48;60.10;;;30.52;;
54125;SDS011;40360;52.992;6.796;2022-12-13T08:02:14;55.25;;;28.60;;
54125;SDS011;40360;52.992;6.796;2022-12-13T08:04:41;58.40;;;29.40;;
54125;SDS011;40360;52.992;6.796;2022-12-13T08:07:07;62.42;;;29.73;;
54125;SDS011;40360;52.992;6.796;2022-12-13T08:09:34;56.47;;;28.63;;
54125;SDS011;40360;52.992;6.796;2022-12-13T08:12:00;54.67;;;26.92;;
54125;SDS011;40360;52.992;6.796;2022-12-13T08:14:26;51.80;;;26.92;;
54125;SDS011;40360;52.992;6.796;2022-12-13T08:16:52;53.03;;;28.85;;
54125;SDS011;40360;52.992;6.796;2022-12-13T08:19:18;54.03;;;26.25;;
54125;SDS011;40360;52.992;6.796;2022-12-13T08:21:43;50.50;;;27.50;;
54125;SDS011;40360;52.992;6.796;2022-12-13T08:24:09;48.95;;;26.48;;
54125;SDS011;40360;52.992;6.796;2022-12-13T08:26:34;55.53;;;27.90;;
54125;SDS011;40360;52.992;6.796;2022-12-13T08:29:01;49.05;;;25.63;;
54125;SDS011;40360;52.992;6.796;2022-12-13T08:31:27;51.53;;;27.60;;
54125;SDS011;40360;52.992;6.796;2022-12-13T08:33:52;45.08;;;24.25;;
54125;SDS011;40360;52.992;6.796;2022-12-13T08:36:18;52.28;;;28.35;;
54125;SDS011;40360;52.992;6.796;2022-12-13T08:38:48;48.88;;;25.65;;
54125;SDS011;40360;52.992;6.796;2022-12-13T08:41:17;51.92;;;27.25;;
54125;SDS011;40360;52.992;6.796;2022-12-13T08:43:43;54.28;;;29.48;;
54125;SDS011;40360;52.992;6.796;2022-12-13T08:46:08;60.90;;;31.20;;
54125;SDS011;40360;52.992;6.796;2022-12-13T08:48:34;57.22;;;30.98;;
54125;SDS011;40360;52.992;6.796;2022-12-13T08:51:04;61.75;;;30.45;;
54125;SDS011;40360;52.992;6.796;2022-12-13T08:53:35;60.47;;;28.88;;
54125;SDS011;40360;52.992;6.796;2022-12-13T08:56:01;59.22;;;29.85;;
54125;SDS011;40360;52.992;6.796;2022-12-13T08:58:35;50.85;;;28.45;;
54125;SDS011;40360;52.992;6.796;2022-12-13T09:01:05;59.15;;;30.05;;
54125;SDS011;40360;52.992;6.796;2022-12-13T09:03:32;57.83;;;28.90;;
54125;SDS011;40360;52.992;6.796;2022-12-13T09:06:04;69.13;;;32.92;;
54125;SDS011;40360;52.992;6.796;2022-12-13T09:08:31;64.40;;;32.60;;
54125;SDS011;40360;52.992;6.796;2022-12-13T09:10:57;70.47;;;34.00;;
54125;SDS011;40360;52.992;6.796;2022-12-13T09:13:24;69.10;;;34.25;;
54125;SDS011;40360;52.992;6.796;2022-12-13T09:15:50;63.47;;;31.80;;
54125;SDS011;40360;52.992;6.796;2022-12-13T09:18:15;74.18;;;36.95;;
54125;SDS011;40360;52.992;6.796;2022-12-13T09:20:41;65.32;;;34.65;;
54125;SDS011;40360;52.992;6.796;2022-12-13T09:23:08;71.03;;;32.25;;
54125;SDS011;40360;52.992;6.796;2022-12-13T09:25:34;78.82;;;34.90;;
54125;SDS011;40360;52.992;6.796;2022-12-13T09:28:00;70.72;;;35.38;;
54125;SDS011;40360;52.992;6.796;2022-12-13T09:30:28;76.32;;;36.60;;
54125;SDS011;40360;52.992;6.796;2022-12-13T09:32:54;85.07;;;36.63;;
54125;SDS011;40360;52.992;6.796;2022-12-13T09:35:20;80.38;;;37.40;;
54125;SDS011;40360;52.992;6.796;2022-12-13T09:37:46;70.80;;;35.42;;
54125;SDS011;40360;52.992;6.796;2022-12-13T09:40:19;75.55;;;37.65;;
54125;SDS011;40360;52.992;6.796;2022-12-13T09:42:51;85.95;;;40.00;;
54125;SDS011;40360;52.992;6.796;2022-12-13T09:45:20;89.72;;;39.38;;
54125;SDS011;40360;52.992;6.796;2022-12-13T09:47:46;87.43;;;39.58;;
54125;SDS011;40360;52.992;6.796;2022-12-13T09:50:34;81.90;;;38.50;;
54125;SDS011;40360;52.992;6.796;2022-12-13T09:53:00;73.88;;;38.70;;
54125;SDS011;40360;52.992;6.796;2022-12-13T09:55:40;80.75;;;38.53;;
54125;SDS011;40360;52.992;6.796;2022-12-13T09:58:13;76.38;;;35.97;;
54125;SDS011;40360;52.992;6.796;2022-12-13T10:00:45;83.53;;;38.17;;
54125;SDS011;40360;52.992;6.796;2022-12-13T10:03:14;83.72;;;40.22;;
54125;SDS011;40360;52.992;6.796;2022-12-13T10:05:46;80.07;;;39.90;;
54125;SDS011;40360;52.992;6.796;2022-12-13T10:09:08;78.18;;;39.67;;
54125;SDS011;40360;52.992;6.796;2022-12-13T10:11:17;84.07;;;40.35;;
54125;SDS011;40360;52.992;6.796;2022-12-13T10:16:27;76.68;;;36.85;;
54125;SDS011;40360;52.992;6.796;2022-12-13T10:19:37;72.15;;;36.85;;
54125;SDS011;40360;52.992;6.796;2022-12-13T10:22:04;75.47;;;36.25;;
54125;SDS011;40360;52.992;6.796;2022-12-13T10:30:07;71.30;;;35.40;;
54125;SDS011;40360;52.992;6.796;2022-12-13T10:32:56;74.20;;;37.90;;
54125;SDS011;40360;52.992;6.796;2022-12-13T10:37:53;64.38;;;35.63;;
54125;SDS011;40360;52.992;6.796;2022-12-13T10:40:22;64.65;;;33.97;;
54125;SDS011;40360;52.992;6.796;2022-12-13T10:43:27;67.90;;;36.30;;
54125;SDS011;40360;52.992;6.796;2022-12-13T10:45:56;67.90;;;34.22;;
54125;SDS011;40360;52.992;6.796;2022-12-13T10:51:11;65.20;;;32.92;;
54125;SDS011;40360;52.992;6.796;2022-12-13T10:53:40;59.58;;;34.50;;
54125;SDS011;40360;52.992;6.796;2022-12-13T10:56:19;65.55;;;33.83;;
54125;SDS011;40360;52.992;6.796;2022-12-13T10:58:47;61.88;;;33.90;;
54125;SDS011;40360;52.992;6.796;2022-12-13T11:01:20;64.15;;;34.65;;
54125;SDS011;40360;52.992;6.796;2022-12-13T11:03:57;71.13;;;36.85;;
54125;SDS011;40360;52.992;6.796;2022-12-13T11:06:25;64.97;;;33.53;;
54125;SDS011;40360;52.992;6.796;2022-12-13T11:08:52;63.72;;;34.85;;
54125;SDS011;40360;52.992;6.796;2022-12-13T11:11:25;55.38;;;31.75;;
54125;SDS011;40360;52.992;6.796;2022-12-13T11:13:54;66.57;;;32.85;;
54125;SDS011;40360;52.992;6.796;2022-12-13T11:16:33;54.03;;;30.55;;
54125;SDS011;40360;52.992;6.796;2022-12-13T11:19:02;54.10;;;32.97;;
54125;SDS011;40360;52.992;6.796;2022-12-13T11:21:33;53.33;;;31.55;;
54125;SDS011;40360;52.992;6.796;2022-12-13T11:24:02;58.90;;;32.30;;
54125;SDS011;40360;52.992;6.796;2022-12-13T11:26:32;56.50;;;30.77;;
54125;SDS011;40360;52.992;6.796;2022-12-13T11:34:53;58.97;;;34.33;;
54125;SDS011;40360;52.992;6.796;2022-12-13T11:37:47;66.15;;;34.08;;
54125;SDS011;40360;52.992;6.796;2022-12-13T11:40:24;62.35;;;34.63;;
54125;SDS011;40360;52.992;6.796;2022-12-13T11:42:54;63.25;;;32.70;;
54125;SDS011;40360;52.992;6.796;2022-12-13T11:45:39;59.63;;;33.08;;
54125;SDS011;40360;52.992;6.796;2022-12-13T11:50:35;52.45;;;28.30;;
54125;SDS011;40360;52.992;6.796;2022-12-13T12:06:58;40.13;;;22.77;;
54125;SDS011;40360;52.992;6.796;2022-12-13T12:09:39;44.00;;;24.20;;
54125;SDS011;40360;52.992;6.796;2022-12-13T12:12:13;44.67;;;25.13;;
54125;SDS011;40360;52.992;6.796;2022-12-13T12:17:31;36.73;;;21.60;;
54125;SDS011;40360;52.992;6.796;2022-12-13T12:19:57;41.58;;;24.02;;
54125;SDS011;40360;52.992;6.796;2022-12-13T12:30:54;39.92;;;23.42;;
54125;SDS011;40360;52.992;6.796;2022-12-13T12:38:59;35.05;;;22.60;;
54125;SDS011;40360;52.992;6.796;2022-12-13T12:41:50;34.95;;;22.65;;
54125;SDS011;40360;52.992;6.796;2022-12-13T12:46:50;35.58;;;22.30;;
54125;SDS011;40360;52.992;6.796;2022-12-13T12:49:28;40.45;;;24.17;;
54125;SDS011;40360;52.992;6.796;2022-12-13T12:52:16;38.33;;;23.08;;
54125;SDS011;40360;52.992;6.796;2022-12-13T12:55:23;38.17;;;23.90;;
54125;SDS011;40360;52.992;6.796;2022-12-13T13:00:25;39.10;;;24.63;;
54125;SDS011;40360;52.992;6.796;2022-12-13T13:05:50;41.10;;;24.60;;
54125;SDS011;40360;52.992;6.796;2022-12-13T13:10:49;41.65;;;25.55;;
54125;SDS011;40360;52.992;6.796;2022-12-13T13:16:01;44.17;;;27.65;;
54125;SDS011;40360;52.992;6.796;2022-12-13T13:26:33;42.47;;;26.23;;
54125;SDS011;40360;52.992;6.796;2022-12-13T13:34:44;40.40;;;24.38;;
54125;SDS011;40360;52.992;6.796;2022-12-13T13:39:53;42.13;;;25.70;;
54125;SDS011;40360;52.992;6.796;2022-12-13T13:42:25;42.17;;;26.30;;
54125;SDS011;40360;52.992;6.796;2022-12-13T13:45:26;39.72;;;25.23;;
54125;SDS011;40360;52.992;6.796;2022-12-13T13:50:36;41.47;;;25.05;;
54125;SDS011;40360;52.992;6.796;2022-12-13T13:56:32;40.83;;;24.45;;
54125;SDS011;40360;52.992;6.796;2022-12-13T13:59:19;42.88;;;25.80;;
54125;SDS011;40360;52.992;6.796;2022-12-13T14:02:14;41.88;;;26.33;;
54125;SDS011;40360;52.992;6.796;2022-12-13T14:05:18;40.55;;;26.52;;
54125;SDS011;40360;52.992;6.796;2022-12-13T14:19:03;41.95;;;26.25;;
54125;SDS011;40360;52.992;6.796;2022-12-13T14:27:22;48.50;;;27.77;;
54125;SDS011;40360;52.992;6.796;2022-12-13T14:29:57;44.70;;;27.98;;
54125;SDS011;40360;52.992;6.796;2022-12-13T14:32:24;41.65;;;25.48;;
54125;SDS011;40360;52.992;6.796;2022-12-13T14:34:55;44.65;;;28.52;;
54125;SDS011;40360;52.992;6.796;2022-12-13T14:39:54;45.30;;;26.65;;
54125;SDS011;40360;52.992;6.796;2022-12-13T14:42:28;46.25;;;28.90;;
54125;SDS011;40360;52.992;6.796;2022-12-13T14:47:54;44.80;;;27.33;;
54125;SDS011;40360;52.992;6.796;2022-12-13T14:50:23;47.42;;;29.58;;
54125;SDS011;40360;52.992;6.796;2022-12-13T14:52:50;51.55;;;28.98;;
54125;SDS011;40360;52.992;6.796;2022-12-13T14:55:35;41.45;;;26.90;;
54125;SDS011;40360;52.992;6.796;2022-12-13T14:58:02;46.28;;;26.48;;
54125;SDS011;40360;52.992;6.796;2022-12-13T15:00:40;46.22;;;28.10;;
54125;SDS011;40360;52.992;6.796;2022-12-13T15:03:09;47.95;;;28.88;;
54125;SDS011;40360;52.992;6.796;2022-12-13T15:05:51;47.13;;;28.45;;
54125;SDS011;40360;52.992;6.796;2022-12-13T15:08:19;49.70;;;30.23;;
54125;SDS011;40360;52.992;6.796;2022-12-13T15:10:51;45.95;;;28.95;;
54125;SDS011;40360;52.992;6.796;2022-12-13T15:16:09;50.25;;;29.88;;
54125;SDS011;40360;52.992;6.796;2022-12-13T15:21:37;44.45;;;28.70;;
54125;SDS011;40360;52.992;6.796;2022-12-13T15:24:03;52.15;;;30.33;;
54125;SDS011;40360;52.992;6.796;2022-12-13T15:26:30;46.72;;;30.02;;
54125;SDS011;40360;52.992;6.796;2022-12-13T15:28:57;50.55;;;31.67;;
54125;SDS011;40360;52.992;6.796;2022-12-13T15:31:25;49.88;;;31.98;;
54125;SDS011;40360;52.992;6.796;2022-12-13T15:33:50;55.53;;;31.23;;
54125;SDS011;40360;52.992;6.796;2022-12-13T15:41:20;45.30;;;29.50;;
54125;SDS011;40360;52.992;6.796;2022-12-13T15:43:52;54.88;;;31.75;;
54125;SDS011;40360;52.992;6.796;2022-12-13T15:46:25;46.95;;;28.98;;
54125;SDS011;40360;52.992;6.796;2022-12-13T15:48:57;49.47;;;29.58;;
54125;SDS011;40360;52.992;6.796;2022-12-13T15:51:25;48.75;;;29.42;;
54125;SDS011;40360;52.992;6.796;2022-12-13T15:54:33;48.85;;;28.88;;
54125;SDS011;40360;52.992;6.796;2022-12-13T15:59:32;42.38;;;27.08;;
54125;SDS011;40360;52.992;6.796;2022-12-13T16:02:00;49.13;;;29.13;;
54125;SDS011;40360;52.992;6.796;2022-12-13T16:04:28;50.85;;;27.15;;
54125;SDS011;40360;52.992;6.796;2022-12-13T16:06:56;45.45;;;25.58;;
54125;SDS011;40360;52.992;6.796;2022-12-13T16:09:24;51.58;;;29.80;;
54125;SDS011;40360;52.992;6.796;2022-12-13T16:11:53;47.10;;;29.95;;
54125;SDS011;40360;52.992;6.796;2022-12-13T16:16:59;47.72;;;27.67;;
54125;SDS011;40360;52.992;6.796;2022-12-13T16:19:42;45.47;;;29.52;;
54125;SDS011;40360;52.992;6.796;2022-12-13T16:22:07;45.90;;;29.63;;
54125;SDS011;40360;52.992;6.796;2022-12-13T16:24:33;49.10;;;29.52;;
54125;SDS011;40360;52.992;6.796;2022-12-13T16:26:59;44.85;;;29.25;;
54125;SDS011;40360;52.992;6.796;2022-12-13T16:29:24;52.47;;;30.42;;
54125;SDS011;40360;52.992;6.796;2022-12-13T16:31:50;46.25;;;29.67;;
54125;SDS011;40360;52.992;6.796;2022-12-13T16:34:16;52.90;;;30.63;;
54125;SDS011;40360;52.992;6.796;2022-12-13T16:36:43;56.60;;;33.25;;
54125;SDS011;40360;52.992;6.796;2022-12-13T16:39:11;53.22;;;31.02;;
54125;SDS011;40360;52.992;6.796;2022-12-13T16:41:38;53.20;;;31.95;;
54125;SDS011;40360;52.992;6.796;2022-12-13T16:44:07;50.80;;;28.92;;
54125;SDS011;40360;52.992;6.796;2022-12-13T16:46:37;55.05;;;30.63;;
54125;SDS011;40360;52.992;6.796;2022-12-13T16:49:04;53.13;;;29.42;;
54125;SDS011;40360;52.992;6.796;2022-12-13T16:51:47;50.10;;;30.92;;
54125;SDS011;40360;52.992;6.796;2022-12-13T16:54:13;55.67;;;30.40;;
54125;SDS011;40360;52.992;6.796;2022-12-13T16:56:38;54.58;;;32.47;;
54125;SDS011;40360;52.992;6.796;2022-12-13T16:59:04;50.72;;;30.17;;
54125;SDS011;40360;52.992;6.796;2022-12-13T17:01:30;47.47;;;29.08;;
54125;SDS011;40360;52.992;6.796;2022-12-13T17:03:57;53.60;;;29.92;;
54125;SDS011;40360;52.992;6.796;2022-12-13T17:06:22;46.55;;;28.00;;
54125;SDS011;40360;52.992;6.796;2022-12-13T17:08:49;50.22;;;29.80;;
54125;SDS011;40360;52.992;6.796;2022-12-13T17:11:14;47.80;;;30.00;;
54125;SDS011;40360;52.992;6.796;2022-12-13T17:13:40;49.40;;;29.92;;
54125;SDS011;40360;52.992;6.796;2022-12-13T17:16:08;49.13;;;29.48;;
54125;SDS011;40360;52.992;6.796;2022-12-13T17:18:35;53.13;;;31.42;;
54125;SDS011;40360;52.992;6.796;2022-12-13T17:21:07;59.35;;;33.10;;
54125;SDS011;40360;52.992;6.796;2022-12-13T17:23:34;48.92;;;28.17;;